sensor_id;sensor_type;location;lat;lon;timestamp;pressure;altitude;pressure_sealevel;temperature;humidity
65880;BME280;52661;51.364;6.054;2023-03-19T00:01:56;100734.94;;;12.06;100.00
65880;BME280;52661;51.364;6.054;2023-03-19T00:04:25;100737.97;;;12.22;100.00
65880;BME280;52661;51.364;6.054;2023-03-19T00:06:51;100741.47;;;12.19;100.00
65880;BME280;52661;51.364;6.054;2023-03-19T00:09:17;100732.53;;;12.22;100.00
65880;BME280;52661;51.364;6.054;2023-03-19T00:11:43;100736.44;;;12.18;100.00
65880;BME280;52661;51.364;6.054;2023-03-19T00:14:08;100735.72;;;12.10;100.00
65880;BME280;52661;51.364;6.054;2023-03-19T00:16:34;100733.34;;;12.12;100.00
65880;BME280;52661;51.364;6.054;2023-03-19T00:19:01;100732.19;;;12.13;100.00
65880;BME280;52661;51.364;6.054;2023-03-19T00:21:27;100732.56;;;12.19;100.00
65880;BME280;52661;51.364;6.054;2023-03-19T00:23:52;100735.72;;;12.07;100.00
65880;BME280;52661;51.364;6.054;2023-03-19T00:26:18;100736.06;;;12.12;100.00
65880;BME280;52661;51.364;6.054;2023-03-19T00:28:43;100732.59;;;12.15;100.00
65880;BME280;52661;51.364;6.054;2023-03-19T00:31:14;100728.66;;;12.20;100.00
65880;BME280;52661;51.364;6.054;2023-03-19T00:33:40;100731.03;;;12.14;100.00
65880;BME280;52661;51.364;6.054;2023-03-19T00:36:07;100726.44;;;12.04;100.00
65880;BME280;52661;51.364;6.054;2023-03-19T00:38:33;100730.25;;;12.14;100.00
65880;BME280;52661;51.364;6.054;2023-03-19T00:41:00;100733.03;;;12.03;100.00
65880;BME280;52661;51.364;6.054;2023-03-19T00:43:25;100731.06;;;12.11;100.00
65880;BME280;52661;51.364;6.054;2023-03-19T00:45:51;100731.13;;;12.00;100.00
65880;BME280;52661;51.364;6.054;2023-03-19T00:48:17;100724.53;;;11.94;100.00
65880;BME280;52661;51.364;6.054;2023-03-19T00:50:42;100739.34;;;11.86;100.00
65880;BME280;52661;51.364;6.054;2023-03-19T00:53:08;100726.50;;;11.87;100.00
65880;BME280;52661;51.364;6.054;2023-03-19T00:55:33;100729.19;;;11.90;100.00
65880;BME280;52661;51.364;6.054;2023-03-19T00:57:59;100726.88;;;11.92;100.00
65880;BME280;52661;51.364;6.054;2023-03-19T01:00:24;100719.84;;;11.98;100.00
65880;BME280;52661;51.364;6.054;2023-03-19T01:02:50;100729.16;;;12.04;100.00
65880;BME280;52661;51.364;6.054;2023-03-19T01:05:15;100735.72;;;12.07;100.00
65880;BME280;52661;51.364;6.054;2023-03-19T01:07:41;100729.16;;;12.01;100.00
65880;BME280;52661;51.364;6.054;2023-03-19T01:10:07;100729.91;;;12.01;100.00
65880;BME280;52661;51.364;6.054;2023-03-19T01:12:32;100734.63;;;11.97;100.00
65880;BME280;52661;51.364;6.054;2023-03-19T01:14:58;100729.56;;;11.99;100.00
65880;BME280;52661;51.364;6.054;2023-03-19T01:17:23;100736.59;;;11.93;100.00
65880;BME280;52661;51.364;6.054;2023-03-19T01:19:49;100731.88;;;12.01;100.00
65880;BME280;52661;51.364;6.054;2023-03-19T01:22:15;100735.03;;;11.92;100.00
65880;BME280;52661;51.364;6.054;2023-03-19T01:24:41;100736.25;;;11.80;100.00
65880;BME280;52661;51.364;6.054;2023-03-19T01:27:07;100732.38;;;11.78;100.00
65880;BME280;52661;51.364;6.054;2023-03-19T01:29:32;100738.94;;;11.88;100.00
65880;BME280;52661;51.364;6.054;2023-03-19T01:31:58;100738.63;;;11.75;100.00
65880;BME280;52661;51.364;6.054;2023-03-19T01:34:23;100733.56;;;11.66;100.00
65880;BME280;52661;51.364;6.054;2023-03-19T01:36:49;100730.06;;;11.76;100.00
65880;BME280;52661;51.364;6.054;2023-03-19T01:39:14;100726.94;;;11.78;100.00
65880;BME280;52661;51.364;6.054;2023-03-19T01:41:39;100725.38;;;11.77;100.00
65880;BME280;52661;51.364;6.054;2023-03-19T01:46:50;100728.19;;;11.56;100.00
65880;BME280;52661;51.364;6.054;2023-03-19T01:49:17;100720.38;;;11.58;100.00
65880;BME280;52661;51.364;6.054;2023-03-19T01:51:44;100716.09;;;11.64;100.00
65880;BME280;52661;51.364;6.054;2023-03-19T01:54:14;100717.66;;;11.75;100.00
65880;BME280;52661;51.364;6.054;2023-03-19T01:56:42;100727.00;;;11.64;100.00
65880;BME280;52661;51.364;6.054;2023-03-19T01:59:22;100725.81;;;11.58;100.00
65880;BME280;52661;51.364;6.054;2023-03-19T02:01:55;100727.34;;;11.66;100.00
65880;BME280;52661;51.364;6.054;2023-03-19T02:04:23;100723.84;;;11.65;100.00
65880;BME280;52661;51.364;6.054;2023-03-19T02:06:49;100723.47;;;11.67;100.00
65880;BME280;52661;51.364;6.054;2023-03-19T02:09:16;100715.69;;;11.65;100.00
65880;BME280;52661;51.364;6.054;2023-03-19T02:11:43;100727.75;;;11.71;100.00
65880;BME280;52661;51.364;6.054;2023-03-19T02:14:09;100716.91;;;11.61;100.00
65880;BME280;52661;51.364;6.054;2023-03-19T02:16:34;100721.56;;;11.57;100.00
65880;BME280;52661;51.364;6.054;2023-03-19T02:19:00;100719.63;;;11.61;100.00
65880;BME280;52661;51.364;6.054;2023-03-19T02:21:25;100726.22;;;11.63;100.00
65880;BME280;52661;51.364;6.054;2023-03-19T02:26:18;100727.78;;;11.61;100.00
65880;BME280;52661;51.364;6.054;2023-03-19T02:28:46;100723.16;;;11.47;100.00
65880;BME280;52661;51.364;6.054;2023-03-19T02:31:13;100724.69;;;11.52;100.00
65880;BME280;52661;51.364;6.054;2023-03-19T02:33:39;100717.69;;;11.51;100.00
65880;BME280;52661;51.364;6.054;2023-03-19T02:36:09;100727.03;;;11.50;100.00
65880;BME280;52661;51.364;6.054;2023-03-19T02:38:38;100725.91;;;11.33;100.00
65880;BME280;52661;51.364;6.054;2023-03-19T02:41:06;100736.75;;;11.47;100.00
65880;BME280;52661;51.364;6.054;2023-03-19T02:43:34;100733.69;;;11.38;100.00
65880;BME280;52661;51.364;6.054;2023-03-19T02:46:02;100730.16;;;11.41;100.00
65880;BME280;52661;51.364;6.054;2023-03-19T02:48:28;100729.78;;;11.39;100.00
65880;BME280;52661;51.364;6.054;2023-03-19T02:50:54;100731.31;;;11.44;100.00
65880;BME280;52661;51.364;6.054;2023-03-19T02:53:20;100730.53;;;11.47;100.00
65880;BME280;52661;51.364;6.054;2023-03-19T02:55:45;100737.16;;;11.46;100.00
65880;BME280;52661;51.364;6.054;2023-03-19T02:58:11;100737.50;;;11.48;100.00
65880;BME280;52661;51.364;6.054;2023-03-19T03:00:37;100735.22;;;11.43;100.00
65880;BME280;52661;51.364;6.054;2023-03-19T03:03:04;100735.59;;;11.41;100.00
65880;BME280;52661;51.364;6.054;2023-03-19T03:05:31;100730.56;;;11.36;100.00
65880;BME280;52661;51.364;6.054;2023-03-19T03:07:56;100734.06;;;11.36;100.00
65880;BME280;52661;51.364;6.054;2023-03-19T03:10:23;100736.78;;;11.33;100.00
65880;BME280;52661;51.364;6.054;2023-03-19T03:12:48;100737.19;;;11.31;100.00
65880;BME280;52661;51.364;6.054;2023-03-19T03:15:13;100739.91;;;11.31;100.00
65880;BME280;52661;51.364;6.054;2023-03-19T03:17:39;100736.41;;;11.34;100.00
65880;BME280;52661;51.364;6.054;2023-03-19T03:20:06;100736.78;;;11.33;100.00
65880;BME280;52661;51.364;6.054;2023-03-19T03:22:32;100732.91;;;11.38;100.00
65880;BME280;52661;51.364;6.054;2023-03-19T03:24:57;100733.66;;;11.42;100.00
65880;BME280;52661;51.364;6.054;2023-03-19T03:27:23;100743.78;;;11.30;100.00
65880;BME280;52661;51.364;6.054;2023-03-19T03:29:48;100740.28;;;11.30;100.00
65880;BME280;52661;51.364;6.054;2023-03-19T03:32:15;100750.00;;;11.34;100.00
65880;BME280;52661;51.364;6.054;2023-03-19T03:34:40;100749.22;;;11.30;100.00
65880;BME280;52661;51.364;6.054;2023-03-19T03:37:06;100754.28;;;11.35;100.00
65880;BME280;52661;51.364;6.054;2023-03-19T03:39:31;100754.66;;;11.30;100.00
65880;BME280;52661;51.364;6.054;2023-03-19T03:41:57;100747.66;;;11.36;100.00
65880;BME280;52661;51.364;6.054;2023-03-19T03:44:22;100746.84;;;11.40;100.00
65880;BME280;52661;51.364;6.054;2023-03-19T03:46:48;100752.72;;;11.31;100.00
65880;BME280;52661;51.364;6.054;2023-03-19T03:49:13;100760.84;;;11.34;100.00
65880;BME280;52661;51.364;6.054;2023-03-19T03:51:39;100755.84;;;11.22;100.00
65880;BME280;52661;51.364;6.054;2023-03-19T03:54:05;100756.59;;;11.33;100.00
65880;BME280;52661;51.364;6.054;2023-03-19T03:56:31;100751.56;;;11.32;100.00
65880;BME280;52661;51.364;6.054;2023-03-19T03:58:57;100760.88;;;11.31;100.00
65880;BME280;52661;51.364;6.054;2023-03-19T04:01:23;100763.56;;;11.45;100.00
65880;BME280;52661;51.364;6.054;2023-03-19T04:03:48;100766.63;;;11.51;100.00
65880;BME280;52661;51.364;6.054;2023-03-19T04:06:18;100768.19;;;11.48;100.00
65880;BME280;52661;51.364;6.054;2023-03-19T04:08:46;100769.34;;;11.54;100.00
65880;BME280;52661;51.364;6.054;2023-03-19T04:11:11;100769.78;;;11.39;100.00
65880;BME280;52661;51.364;6.054;2023-03-19T04:13:37;100768.59;;;11.36;100.00
65880;BME280;52661;51.364;6.054;2023-03-19T04:16:04;100780.28;;;11.26;100.00
65880;BME280;52661;51.364;6.054;2023-03-19T04:18:29;100768.59;;;11.40;100.00
65880;BME280;52661;51.364;6.054;2023-03-19T04:20:55;100778.34;;;11.26;100.00
65880;BME280;52661;51.364;6.054;2023-03-19T04:23:21;100783.41;;;11.28;100.00
65880;BME280;52661;51.364;6.054;2023-03-19T04:25:46;100780.28;;;11.22;100.00
65880;BME280;52661;51.364;6.054;2023-03-19T04:28:12;100775.28;;;11.14;100.00
65880;BME280;52661;51.364;6.054;2023-03-19T04:30:37;100780.69;;;11.24;100.00
65880;BME280;52661;51.364;6.054;2023-03-19T04:33:03;100787.28;;;11.27;100.00
65880;BME280;52661;51.364;6.054;2023-03-19T04:35:29;100785.34;;;11.24;100.00
65880;BME280;52661;51.364;6.054;2023-03-19T04:37:54;100776.78;;;11.25;100.00
65880;BME280;52661;51.364;6.054;2023-03-19T04:40:20;100779.50;;;11.25;100.00
65880;BME280;52661;51.364;6.054;2023-03-19T04:42:45;100781.84;;;11.23;100.00
65880;BME280;52661;51.364;6.054;2023-03-19T04:45:11;100785.69;;;11.33;100.00
65880;BME280;52661;51.364;6.054;2023-03-19T04:47:37;100794.28;;;11.21;100.00
65880;BME280;52661;51.364;6.054;2023-03-19T04:50:03;100784.94;;;11.18;100.00
65880;BME280;52661;51.364;6.054;2023-03-19T04:52:28;100791.56;;;11.24;100.00
65880;BME280;52661;51.364;6.054;2023-03-19T04:54:54;100792.72;;;11.23;100.00
65880;BME280;52661;51.364;6.054;2023-03-19T04:57:19;100796.59;;;11.19;100.00
65880;BME280;52661;51.364;6.054;2023-03-19T04:59:45;100801.22;;;11.22;100.00
65880;BME280;52661;51.364;6.054;2023-03-19T05:02:11;100804.72;;;11.22;100.00
65880;BME280;52661;51.364;6.054;2023-03-19T05:04:37;100801.22;;;11.25;100.00
65880;BME280;52661;51.364;6.054;2023-03-19T05:07:02;100803.19;;;11.21;100.00
65880;BME280;52661;51.364;6.054;2023-03-19T05:09:28;100796.56;;;11.26;100.00
65880;BME280;52661;51.364;6.054;2023-03-19T05:11:55;100804.34;;;11.27;100.00
65880;BME280;52661;51.364;6.054;2023-03-19T05:14:20;100805.91;;;11.11;100.00
65880;BME280;52661;51.364;6.054;2023-03-19T05:16:46;100814.06;;;11.25;100.00
65880;BME280;52661;51.364;6.054;2023-03-19T05:19:12;100801.63;;;11.27;100.00
65880;BME280;52661;51.364;6.054;2023-03-19T05:21:37;100805.13;;;11.24;100.00
65880;BME280;52661;51.364;6.054;2023-03-19T05:24:03;100806.69;;;11.15;100.00
65880;BME280;52661;51.364;6.054;2023-03-19T05:26:29;100802.81;;;11.16;100.00
65880;BME280;52661;51.364;6.054;2023-03-19T05:28:54;100808.22;;;11.26;100.00
65880;BME280;52661;51.364;6.054;2023-03-19T05:31:19;100809.78;;;11.31;100.00
65880;BME280;52661;51.364;6.054;2023-03-19T05:33:45;100807.44;;;11.22;100.00
65880;BME280;52661;51.364;6.054;2023-03-19T05:36:10;100811.72;;;11.27;100.00
65880;BME280;52661;51.364;6.054;2023-03-19T05:38:37;100810.94;;;11.23;100.00
65880;BME280;52661;51.364;6.054;2023-03-19T05:41:04;100810.94;;;11.23;100.00
65880;BME280;52661;51.364;6.054;2023-03-19T05:43:30;100805.88;;;11.21;100.00
65880;BME280;52661;51.364;6.054;2023-03-19T05:45:55;100804.38;;;11.17;100.00
65880;BME280;52661;51.364;6.054;2023-03-19T05:48:21;100814.03;;;11.18;100.00
65880;BME280;52661;51.364;6.054;2023-03-19T05:50:46;100816.00;;;11.24;100.00
65880;BME280;52661;51.364;6.054;2023-03-19T05:53:12;100816.00;;;11.17;100.00
65880;BME280;52661;51.364;6.054;2023-03-19T05:55:37;100817.53;;;11.18;100.00
65880;BME280;52661;51.364;6.054;2023-03-19T05:58:03;100820.25;;;11.22;100.00
65880;BME280;52661;51.364;6.054;2023-03-19T06:00:28;100834.63;;;11.19;100.00
65880;BME280;52661;51.364;6.054;2023-03-19T06:02:54;100832.31;;;11.10;100.00
65880;BME280;52661;51.364;6.054;2023-03-19T06:05:19;100828.41;;;11.11;100.00
65880;BME280;52661;51.364;6.054;2023-03-19T06:07:45;100829.19;;;11.08;100.00
65880;BME280;52661;51.364;6.054;2023-03-19T06:10:10;100830.75;;;11.09;100.00
65880;BME280;52661;51.364;6.054;2023-03-19T06:12:36;100838.50;;;11.04;100.00
65880;BME280;52661;51.364;6.054;2023-03-19T06:15:01;100841.22;;;11.11;100.00
65880;BME280;52661;51.364;6.054;2023-03-19T06:17:26;100844.72;;;11.11;100.00
65880;BME280;52661;51.364;6.054;2023-03-19T06:19:52;100854.78;;;11.11;100.00
65880;BME280;52661;51.364;6.054;2023-03-19T06:22:17;100852.84;;;11.25;100.00
65880;BME280;52661;51.364;6.054;2023-03-19T06:24:42;100851.34;;;11.14;100.00
65880;BME280;52661;51.364;6.054;2023-03-19T06:27:08;100855.56;;;11.22;100.00
65880;BME280;52661;51.364;6.054;2023-03-19T06:29:33;100854.03;;;11.21;100.00
65880;BME280;52661;51.364;6.054;2023-03-19T06:31:59;100851.69;;;11.30;100.00
65880;BME280;52661;51.364;6.054;2023-03-19T06:34:24;100861.78;;;11.22;100.00
65880;BME280;52661;51.364;6.054;2023-03-19T06:36:50;100861.00;;;11.36;100.00
65880;BME280;52661;51.364;6.054;2023-03-19T06:39:17;100864.91;;;11.39;100.00
65880;BME280;52661;51.364;6.054;2023-03-19T06:41:43;100867.63;;;11.39;100.00
65880;BME280;52661;51.364;6.054;2023-03-19T06:44:08;100869.16;;;11.43;100.00
65880;BME280;52661;51.364;6.054;2023-03-19T06:46:34;100866.03;;;11.48;100.00
65880;BME280;52661;51.364;6.054;2023-03-19T06:48:59;100873.03;;;11.42;100.00
65880;BME280;52661;51.364;6.054;2023-03-19T06:51:24;100881.19;;;11.46;100.00
65880;BME280;52661;51.364;6.054;2023-03-19T06:53:52;100880.44;;;11.34;100.00
65880;BME280;52661;51.364;6.054;2023-03-19T06:56:17;100885.06;;;11.38;100.00
65880;BME280;52661;51.364;6.054;2023-03-19T06:58:43;100885.84;;;11.45;100.00
65880;BME280;52661;51.364;6.054;2023-03-19T07:01:08;100891.28;;;11.45;100.00
65880;BME280;52661;51.364;6.054;2023-03-19T07:03:33;100884.69;;;11.46;100.00
65880;BME280;52661;51.364;6.054;2023-03-19T07:05:59;100888.94;;;11.47;100.00
65880;BME280;52661;51.364;6.054;2023-03-19T07:08:24;100881.56;;;11.55;100.00
65880;BME280;52661;51.364;6.054;2023-03-19T07:11:01;100881.97;;;11.53;100.00
65880;BME280;52661;51.364;6.054;2023-03-19T07:13:27;100884.28;;;11.58;100.00
65880;BME280;52661;51.364;6.054;2023-03-19T07:15:53;100888.94;;;11.58;100.00
65880;BME280;52661;51.364;6.054;2023-03-19T07:18:18;100883.50;;;11.58;100.00
65880;BME280;52661;51.364;6.054;2023-03-19T07:20:44;100897.47;;;11.67;100.00
65880;BME280;52661;51.364;6.054;2023-03-19T07:23:10;100895.13;;;11.62;100.00
65880;BME280;52661;51.364;6.054;2023-03-19T07:25:35;100892.44;;;11.62;100.00
65880;BME280;52661;51.364;6.054;2023-03-19T07:28:01;100891.25;;;11.66;100.00
65880;BME280;52661;51.364;6.054;2023-03-19T07:30:26;100886.19;;;11.65;100.00
65880;BME280;52661;51.364;6.054;2023-03-19T07:32:52;100897.84;;;11.62;100.00
65880;BME280;52661;51.364;6.054;2023-03-19T07:35:17;100895.13;;;11.69;100.00
65880;BME280;52661;51.364;6.054;2023-03-19T07:37:42;100895.13;;;11.65;100.00
65880;BME280;52661;51.364;6.054;2023-03-19T07:40:08;100905.22;;;11.65;100.00
65880;BME280;52661;51.364;6.054;2023-03-19T07:42:34;100901.38;;;11.76;100.00
65880;BME280;52661;51.364;6.054;2023-03-19T07:45:01;100897.84;;;11.79;100.00
65880;BME280;52661;51.364;6.054;2023-03-19T07:47:26;100901.78;;;11.75;100.00
65880;BME280;52661;51.364;6.054;2023-03-19T07:49:52;100909.13;;;11.85;100.00
65880;BME280;52661;51.364;6.054;2023-03-19T07:52:18;100904.06;;;11.91;100.00
65880;BME280;52661;51.364;6.054;2023-03-19T07:54:43;100909.13;;;11.92;100.00
65880;BME280;52661;51.364;6.054;2023-03-19T07:57:08;100917.25;;;11.96;100.00
65880;BME280;52661;51.364;6.054;2023-03-19T07:59:34;100916.88;;;12.04;100.00
65880;BME280;52661;51.364;6.054;2023-03-19T08:02:00;100925.41;;;12.06;100.00
65880;BME280;52661;51.364;6.054;2023-03-19T08:04:25;100922.69;;;12.03;100.00
65880;BME280;52661;51.364;6.054;2023-03-19T08:06:51;100926.94;;;12.07;100.00
65880;BME280;52661;51.364;6.054;2023-03-19T08:09:16;100924.63;;;12.02;100.00
65880;BME280;52661;51.364;6.054;2023-03-19T08:11:41;100922.28;;;12.08;100.00
65880;BME280;52661;51.364;6.054;2023-03-19T08:14:07;100924.63;;;12.02;100.00
65880;BME280;52661;51.364;6.054;2023-03-19T08:16:32;100926.16;;;12.07;100.00
65880;BME280;52661;51.364;6.054;2023-03-19T08:18:57;100930.41;;;12.22;100.00
65880;BME280;52661;51.364;6.054;2023-03-19T08:21:23;100933.13;;;12.25;100.00
65880;BME280;52661;51.364;6.054;2023-03-19T08:23:48;100933.94;;;12.15;100.00
65880;BME280;52661;51.364;6.054;2023-03-19T08:26:13;100938.94;;;12.27;100.00
65880;BME280;52661;51.364;6.054;2023-03-19T08:28:38;100938.59;;;12.11;100.00
65880;BME280;52661;51.364;6.054;2023-03-19T08:31:12;100937.84;;;12.07;100.00
65880;BME280;52661;51.364;6.054;2023-03-19T08:33:38;100939.75;;;12.17;100.00
65880;BME280;52661;51.364;6.054;2023-03-19T08:36:08;100937.84;;;12.07;100.00
65880;BME280;52661;51.364;6.054;2023-03-19T08:38:34;100951.44;;;12.11;100.00
65880;BME280;52661;51.364;6.054;2023-03-19T08:41:00;100946.75;;;12.15;100.00
65880;BME280;52661;51.364;6.054;2023-03-19T08:43:28;100945.13;;;12.31;100.00
65880;BME280;52661;51.364;6.054;2023-03-19T08:45:53;100955.66;;;12.29;100.00
65880;BME280;52661;51.364;6.054;2023-03-19T08:48:19;100955.63;;;12.37;100.00
65880;BME280;52661;51.364;6.054;2023-03-19T08:50:44;100957.16;;;12.38;100.00
65880;BME280;52661;51.364;6.054;2023-03-19T08:53:10;100960.69;;;12.31;100.00
65880;BME280;52661;51.364;6.054;2023-03-19T08:55:35;100960.28;;;12.36;100.00
65880;BME280;52661;51.364;6.054;2023-03-19T08:58:00;100968.81;;;12.45;100.00
65880;BME280;52661;51.364;6.054;2023-03-19T09:00:26;100958.31;;;12.51;100.00
65880;BME280;52661;51.364;6.054;2023-03-19T09:02:52;100966.38;;;12.68;100.00
65880;BME280;52661;51.364;6.054;2023-03-19T09:05:17;100960.09;;;12.82;100.00
65880;BME280;52661;51.364;6.054;2023-03-19T09:07:46;100967.78;;;12.98;100.00
65880;BME280;52661;51.364;6.054;2023-03-19T09:10:12;100972.38;;;13.15;100.00
65880;BME280;52661;51.364;6.054;2023-03-19T09:12:37;100975.13;;;13.08;100.00
65880;BME280;52661;51.364;6.054;2023-03-19T09:15:03;100975.16;;;13.04;100.00
65880;BME280;52661;51.364;6.054;2023-03-19T09:17:28;100984.50;;;13.03;100.00
65880;BME280;52661;51.364;6.054;2023-03-19T09:19:54;100985.66;;;13.09;100.00
65880;BME280;52661;51.364;6.054;2023-03-19T09:22:19;100988.59;;;13.36;100.00
65880;BME280;52661;51.364;6.054;2023-03-19T09:24:44;100984.81;;;13.23;100.00
65880;BME280;52661;51.364;6.054;2023-03-19T09:27:10;100993.22;;;13.43;100.00
65880;BME280;52661;51.364;6.054;2023-03-19T09:29:35;100997.25;;;13.20;100.00
65880;BME280;52661;51.364;6.054;2023-03-19T09:32:00;100995.28;;;13.24;100.00
65880;BME280;52661;51.364;6.054;2023-03-19T09:34:26;100999.16;;;13.30;100.00
65880;BME280;52661;51.364;6.054;2023-03-19T09:36:51;100992.38;;;13.49;100.00
65880;BME280;52661;51.364;6.054;2023-03-19T09:39:17;100997.75;;;13.63;100.00
65880;BME280;52661;51.364;6.054;2023-03-19T09:42:17;101005.66;;;13.47;100.00
65880;BME280;52661;51.364;6.054;2023-03-19T09:44:47;101001.06;;;13.37;100.00
65880;BME280;52661;51.364;6.054;2023-03-19T09:47:30;101003.81;;;13.34;100.00
65880;BME280;52661;51.364;6.054;2023-03-19T09:49:59;101007.69;;;13.36;100.00
65880;BME280;52661;51.364;6.054;2023-03-19T09:57:43;101016.78;;;13.12;100.00
65880;BME280;52661;51.364;6.054;2023-03-19T10:00:21;101017.16;;;13.14;100.00
65880;BME280;52661;51.364;6.054;2023-03-19T10:02:52;101022.22;;;13.15;100.00
65880;BME280;52661;51.364;6.054;2023-03-19T10:16:37;101034.19;;;13.32;100.00
65880;BME280;52661;51.364;6.054;2023-03-19T10:19:05;101027.03;;;13.56;100.00
65880;BME280;52661;51.364;6.054;2023-03-19T10:24:16;101034.84;;;14.02;100.00
65880;BME280;52661;51.364;6.054;2023-03-19T10:26:45;101042.78;;;14.26;100.00
65880;BME280;52661;51.364;6.054;2023-03-19T10:29:19;101042.81;;;14.23;100.00
65880;BME280;52661;51.364;6.054;2023-03-19T10:36:46;101031.78;;;14.37;100.00
65880;BME280;52661;51.364;6.054;2023-03-19T10:39:13;101033.91;;;14.56;100.00
65880;BME280;52661;51.364;6.054;2023-03-19T10:41:46;101031.66;;;14.48;100.00
65880;BME280;52661;51.364;6.054;2023-03-19T10:44:26;101034.50;;;14.37;100.00
65880;BME280;52661;51.364;6.054;2023-03-19T10:46:56;101034.22;;;14.24;100.00
65880;BME280;52661;51.364;6.054;2023-03-19T10:49:22;101029.81;;;14.38;100.00
65880;BME280;52661;51.364;6.054;2023-03-19T10:51:47;101036.94;;;14.28;100.00
65880;BME280;52661;51.364;6.054;2023-03-19T10:54:24;101036.13;;;14.31;100.00
65880;BME280;52661;51.364;6.054;2023-03-19T10:56:54;101052.06;;;14.40;100.00
65880;BME280;52661;51.364;6.054;2023-03-19T11:01:56;101048.38;;;14.87;100.00
65880;BME280;52661;51.364;6.054;2023-03-19T11:04:23;101048.56;;;15.03;100.00
65880;BME280;52661;51.364;6.054;2023-03-19T11:06:54;101048.81;;;14.86;100.00
65880;BME280;52661;51.364;6.054;2023-03-19T11:09:37;101048.75;;;14.89;100.00
65880;BME280;52661;51.364;6.054;2023-03-19T11:12:20;101049.38;;;14.70;100.00
65880;BME280;52661;51.364;6.054;2023-03-19T11:14:50;101051.94;;;14.50;100.00
65880;BME280;52661;51.364;6.054;2023-03-19T11:19:50;101046.34;;;14.20;100.00
65880;BME280;52661;51.364;6.054;2023-03-19T11:22:18;101043.31;;;14.11;100.00
65880;BME280;52661;51.364;6.054;2023-03-19T11:24:53;101049.47;;;14.18;100.00
65880;BME280;52661;51.364;6.054;2023-03-19T11:27:34;101053.38;;;14.21;100.00
65880;BME280;52661;51.364;6.054;2023-03-19T11:30:11;101047.88;;;14.24;100.00
65880;BME280;52661;51.364;6.054;2023-03-19T11:32:58;101053.28;;;14.32;100.00
65880;BME280;52661;51.364;6.054;2023-03-19T11:35:37;101048.22;;;14.30;100.00
65880;BME280;52661;51.364;6.054;2023-03-19T11:38:15;101055.41;;;14.13;100.00
65880;BME280;52661;51.364;6.054;2023-03-19T11:40:48;101049.16;;;14.13;100.00
65880;BME280;52661;51.364;6.054;2023-03-19T11:44:04;101053.88;;;14.09;100.00
65880;BME280;52661;51.364;6.054;2023-03-19T11:46:53;101047.72;;;13.98;100.00
65880;BME280;52661;51.364;6.054;2023-03-19T11:49:32;101045.31;;;14.07;100.00
65880;BME280;52661;51.364;6.054;2023-03-19T11:52:10;101044.44;;;14.17;100.00
65880;BME280;52661;51.364;6.054;2023-03-19T11:55:02;101039.75;;;14.17;100.00
65880;BME280;52661;51.364;6.054;2023-03-19T11:58:00;101046.75;;;14.18;100.00
65880;BME280;52661;51.364;6.054;2023-03-19T12:00:49;101044.00;;;14.22;100.00
65880;BME280;52661;51.364;6.054;2023-03-19T12:06:43;101042.94;;;14.09;100.00
65880;BME280;52661;51.364;6.054;2023-03-19T12:11:52;101046.03;;;14.11;100.00
65880;BME280;52661;51.364;6.054;2023-03-19T12:14:29;101044.84;;;14.15;100.00
65880;BME280;52661;51.364;6.054;2023-03-19T12:22:28;101044.69;;;14.29;100.00
65880;BME280;52661;51.364;6.054;2023-03-19T12:26:06;101042.13;;;14.90;100.00
65880;BME280;52661;51.364;6.054;2023-03-19T12:28:27;101040.91;;;15.48;97.50
65880;BME280;52661;51.364;6.054;2023-03-19T12:31:35;101042.09;;;15.74;95.40
65880;BME280;52661;51.364;6.054;2023-03-19T12:34:27;101035.44;;;15.48;96.52
65880;BME280;52661;51.364;6.054;2023-03-19T12:39:57;101046.19;;;15.05;99.59
65880;BME280;52661;51.364;6.054;2023-03-19T12:42:30;101046.25;;;15.02;98.06
65880;BME280;52661;51.364;6.054;2023-03-19T12:44:58;101037.00;;;14.92;99.70
65880;BME280;52661;51.364;6.054;2023-03-19T12:47:28;101037.31;;;14.98;100.00
65880;BME280;52661;51.364;6.054;2023-03-19T12:50:05;101035.78;;;14.97;98.33
65880;BME280;52661;51.364;6.054;2023-03-19T12:52:38;101032.03;;;14.84;98.69
65880;BME280;52661;51.364;6.054;2023-03-19T12:55:18;101039.81;;;14.85;99.65
65880;BME280;52661;51.364;6.054;2023-03-19T13:05:54;101044.47;;;15.18;100.00
65880;BME280;52661;51.364;6.054;2023-03-19T13:08:31;101048.97;;;15.02;100.00
65880;BME280;52661;51.364;6.054;2023-03-19T13:10:58;101044.84;;;14.90;100.00
65880;BME280;52661;51.364;6.054;2023-03-19T13:15:58;101038.34;;;14.77;100.00
65880;BME280;52661;51.364;6.054;2023-03-19T13:18:36;101039.66;;;14.65;100.00
65880;BME280;52661;51.364;6.054;2023-03-19T13:21:20;101041.28;;;14.59;100.00
65880;BME280;52661;51.364;6.054;2023-03-19T13:23:48;101039.38;;;14.56;100.00
65880;BME280;52661;51.364;6.054;2023-03-19T13:26:16;101036.56;;;14.63;100.00
65880;BME280;52661;51.364;6.054;2023-03-19T13:31:23;101040.34;;;14.73;100.00
65880;BME280;52661;51.364;6.054;2023-03-19T13:34:00;101043.44;;;14.78;100.00
65880;BME280;52661;51.364;6.054;2023-03-19T13:36:28;101036.31;;;14.85;98.21
65880;BME280;52661;51.364;6.054;2023-03-19T13:38:56;101037.84;;;15.16;98.39
65880;BME280;52661;51.364;6.054;2023-03-19T13:46:46;101048.09;;;16.35;91.09
65880;BME280;52661;51.364;6.054;2023-03-19T13:49:30;101048.06;;;16.15;88.63
65880;BME280;52661;51.364;6.054;2023-03-19T13:54:43;101051.38;;;15.57;95.72
65880;BME280;52661;51.364;6.054;2023-03-19T13:59:39;101045.31;;;15.15;96.65